createdAt,value
2017-09-01T00:00:48.720Z,76.57
2017-09-01T00:01:48.374Z,76.86
2017-09-01T00:02:48.359Z,76.39
2017-09-01T00:03:48.342Z,76.57
2017-09-01T00:04:48.325Z,76.01
2017-09-01T00:05:48.313Z,76.1
2017-09-01T00:06:48.623Z,76.2
2017-09-01T00:07:48.613Z,76.39
2017-09-01T00:08:48.787Z,75.62
2017-09-01T00:09:48.584Z,75.43
2017-09-01T00:10:48.560Z,75.24
2017-09-01T00:11:48.544Z,75.15
2017-09-01T00:12:48.526Z,75.34
2017-09-01T00:13:48.517Z,75.43
2017-09-01T00:14:48.181Z,75.24
2017-09-01T00:15:48.488Z,75.15
2017-09-01T00:16:48.153Z,75.15
2017-09-01T00:17:48.138Z,75.43
2017-09-01T00:18:48.121Z,75.34
2017-09-01T00:19:48.428Z,74.57
2017-09-01T00:20:48.097Z,74.67
2017-09-01T00:21:48.401Z,74.86
2017-09-01T00:22:48.385Z,74.48
2017-09-01T00:23:48.371Z,74.57
2017-09-01T00:24:48.356Z,74.38
2017-09-01T00:25:48.016Z,74.38
2017-09-01T00:26:48.003Z,74.86
2017-09-01T00:27:48.315Z,74.77
2017-09-01T00:28:47.975Z,75.24
2017-09-01T00:29:48.283Z,75.05
2017-09-01T00:30:47.947Z,74.77
2017-09-01T00:31:47.931Z,75.15
2017-09-01T00:32:47.913Z,74.67
2017-09-01T00:33:48.220Z,74.57
2017-09-01T00:34:48.218Z,74.48
2017-09-01T00:35:48.199Z,74.48
2017-09-01T00:36:47.856Z,74.38
2017-09-01T00:37:47.843Z,74.19
2017-09-01T00:38:48.150Z,74.29
2017-09-01T00:39:48.137Z,74.01
2017-09-01T00:40:48.122Z,74.54
2017-09-01T00:41:47.784Z,73.58
2017-09-01T00:42:47.772Z,73.52
2017-09-01T00:43:48.077Z,73.49
2017-09-01T00:44:48.068Z,73.68
2017-09-01T00:45:48.055Z,73.01
2017-09-01T00:46:47.712Z,72.86
2017-09-01T00:47:48.015Z,72.82
2017-09-01T00:48:47.680Z,73.11
2017-09-01T00:49:47.988Z,72.72
2017-09-01T00:50:47.974Z,72.76
2017-09-01T00:51:47.966Z,72.34
2017-09-01T00:52:47.941Z,71.3
2017-09-01T00:53:47.609Z,71.81
2017-09-01T00:54:47.913Z,71.48
2017-09-01T00:55:47.897Z,71.2
2017-09-01T00:56:47.882Z,71.77
2017-09-01T00:57:47.545Z,71.58
2017-09-01T00:58:47.852Z,71.2
2017-09-01T00:59:47.838Z,71.48
2017-09-01T01:00:47.825Z,71.43
2017-09-01T01:01:47.812Z,71.01
2017-09-01T01:02:47.792Z,71.3
2017-09-01T01:03:47.458Z,71.2
2017-09-01T01:04:47.445Z,71.62
2017-09-01T01:05:47.430Z,71.3
2017-09-01T01:06:47.733Z,71.2
2017-09-01T01:07:47.401Z,71.11
2017-09-01T01:08:47.387Z,71.48
2017-09-01T01:09:47.696Z,71.3
2017-09-01T01:10:47.690Z,71.43
2017-09-01T01:11:47.680Z,71.77
2017-09-01T01:12:47.687Z,71.3
2017-09-01T01:13:47.382Z,71.3
2017-09-01T01:14:47.307Z,70.86
2017-09-01T01:15:47.604Z,71.3
2017-09-01T01:16:47.585Z,71.01
2017-09-01T01:17:47.250Z,70.72
2017-09-01T01:18:47.237Z,71.2
2017-09-01T01:19:47.542Z,71.01
2017-09-01T01:20:47.533Z,71.3
2017-09-01T01:21:47.195Z,71.11
2017-09-01T01:22:47.179Z,71.01
2017-09-01T01:23:47.160Z,71.01
2017-09-01T01:24:47.152Z,71.01
2017-09-01T01:25:47.132Z,71.3
2017-09-01T01:26:47.439Z,71.11
2017-09-01T01:27:47.423Z,71.2
2017-09-01T01:28:47.407Z,70.72
2017-09-01T01:29:47.394Z,70.63
2017-09-01T01:30:47.377Z,70.63
2017-09-01T01:31:47.045Z,70.92
2017-09-01T01:32:47.030Z,70.82
2017-09-01T01:33:47.366Z,70.72
2017-09-01T01:34:47.325Z,70.63
2017-09-01T01:35:47.305Z,70.82
2017-09-01T01:36:47.290Z,70.72
2017-09-01T01:37:47.276Z,70.82
2017-09-01T01:38:47.260Z,70.44
2017-09-01T01:39:47.270Z,70.82
2017-09-01T01:40:47.231Z,70.53
2017-09-01T01:41:47.228Z,70.25
2017-09-01T01:42:46.881Z,70.34
2017-09-01T01:43:46.865Z,70.34
2017-09-01T01:44:46.849Z,70.15
2017-09-01T01:45:46.837Z,70.53
2017-09-01T01:46:47.140Z,70.34
2017-09-01T01:47:46.806Z,70.53
2017-09-01T01:48:46.792Z,70.63
2017-09-01T01:49:47.096Z,70.06
2017-09-01T01:50:46.760Z,70.06
2017-09-01T01:51:47.214Z,70.53
2017-09-01T01:52:46.729Z,70.63
2017-09-01T01:53:46.716Z,70.34
2017-09-01T01:54:46.700Z,70.34
2017-09-01T01:55:46.685Z,70.44
2017-09-01T01:56:46.993Z,70.34
2017-09-01T01:57:46.978Z,70.53
2017-09-01T01:58:46.965Z,70.34
2017-09-01T01:59:46.624Z,70.34
2017-09-01T02:00:46.613Z,70.06
2017-09-01T02:01:46.596Z,69.96
2017-09-01T02:02:46.582Z,69.68
2017-09-01T02:03:47.011Z,69.77
2017-09-01T02:04:46.553Z,69.68
2017-09-01T02:05:46.857Z,69.39
2017-09-01T02:06:46.843Z,69.58
2017-09-01T02:07:46.507Z,69.48
2017-09-01T02:08:47.014Z,69.68
2017-09-01T02:09:46.480Z,69.39
2017-09-01T02:10:46.463Z,69.68
2017-09-01T02:11:46.449Z,69.29
2017-09-01T02:12:46.431Z,69.68
2017-09-01T02:13:46.418Z,69.48
2017-09-01T02:14:46.401Z,69.48
2017-09-01T02:15:46.709Z,69.77
2017-09-01T02:16:46.693Z,69.68
2017-09-01T02:17:46.678Z,69.68
2017-09-01T02:18:46.342Z,69.87
2017-09-01T02:19:46.660Z,69.68
2017-09-01T02:20:46.315Z,69.29
2017-09-01T02:21:46.624Z,69.48
2017-09-01T02:22:46.603Z,69.68
2017-09-01T02:23:46.595Z,69.39
2017-09-01T02:24:46.574Z,69.87
2017-09-01T02:25:46.235Z,69.29
2017-09-01T02:26:46.224Z,69.39
2017-09-01T02:27:46.535Z,69.68
2017-09-01T02:28:46.192Z,69.29
2017-09-01T02:29:46.496Z,69.1
2017-09-01T02:30:46.482Z,69.48
2017-09-01T02:31:46.471Z,69.01
2017-09-01T02:32:46.453Z,69.01
2017-09-01T02:33:46.439Z,69.1
2017-09-01T02:34:46.478Z,69.17
2017-09-01T02:35:46.087Z,69.1
2017-09-01T02:36:46.071Z,68.63
2017-09-01T02:37:46.379Z,69.01
2017-09-01T02:38:46.040Z,69.26
2017-09-01T02:39:46.347Z,68.53
2017-09-01T02:40:46.012Z,68.34
2017-09-01T02:41:46.315Z,68.44
2017-09-01T02:42:45.982Z,68.72
2017-09-01T02:43:45.964Z,68.72
2017-09-01T02:44:46.273Z,68.63
2017-09-01T02:45:46.256Z,68.34
2017-09-01T02:46:46.240Z,67.77
2017-09-01T02:47:45.907Z,68.05
2017-09-01T02:48:46.211Z,67.29
2017-09-01T02:49:46.208Z,67.48
2017-09-01T02:50:46.226Z,67.1
2017-09-01T02:51:46.165Z,67.29
2017-09-01T02:52:45.828Z,67.2
2017-09-01T02:53:45.814Z,67.16
2017-09-01T02:54:45.798Z,67.07
2017-09-01T02:55:46.110Z,66.88
2017-09-01T02:56:45.768Z,66.97
2017-09-01T02:57:46.079Z,67.16
2017-09-01T02:58:45.738Z,67.48
2017-09-01T02:59:46.045Z,66.97
2017-09-01T03:00:46.031Z,67.07
2017-09-01T03:01:45.696Z,67.16
2017-09-01T03:02:45.996Z,66.5
2017-09-01T03:03:45.660Z,66.78
2017-09-01T03:04:45.967Z,66.78
2017-09-01T03:05:45.633Z,67.16
2017-09-01T03:06:45.616Z,67.16
2017-09-01T03:07:45.600Z,67.16
2017-09-01T03:08:45.584Z,66.88
2017-09-01T03:09:45.891Z,67.07
2017-09-01T03:10:45.878Z,67.16
2017-09-01T03:11:45.539Z,66.97
2017-09-01T03:12:45.524Z,66.31
2017-09-01T03:13:45.830Z,67.07
2017-09-01T03:14:45.492Z,66.78
2017-09-01T03:15:45.480Z,67.16
2017-09-01T03:16:45.464Z,67.26
2017-09-01T03:17:45.449Z,67.16
2017-09-01T03:18:45.435Z,66.97
2017-09-01T03:19:45.418Z,67.16
2017-09-01T03:20:45.721Z,66.5
2017-09-01T03:21:45.391Z,66.4
2017-09-01T03:22:45.698Z,66.5
2017-09-01T03:23:45.684Z,66.4
2017-09-01T03:24:45.391Z,65.64
2017-09-01T03:25:45.324Z,65.73
2017-09-01T03:26:45.636Z,65.92
2017-09-01T03:27:45.623Z,65.83
2017-09-01T03:28:45.280Z,65.73
2017-09-01T03:29:45.268Z,65.26
2017-09-01T03:30:45.250Z,65.07
2017-09-01T03:31:45.555Z,65.16
2017-09-01T03:32:45.219Z,65.26
2017-09-01T03:33:45.528Z,64.78
2017-09-01T03:34:45.187Z,64.87
2017-09-01T03:35:45.492Z,64.87
2017-09-01T03:36:45.158Z,64.59
2017-09-01T03:37:45.141Z,64.97
2017-09-01T03:38:45.128Z,64.97
2017-09-01T03:39:45.112Z,64.87
2017-09-01T03:40:45.421Z,64.5
2017-09-01T03:41:45.405Z,64.5
2017-09-01T03:42:45.070Z,64.5
2017-09-01T03:43:45.054Z,64.78
2017-09-01T03:44:45.370Z,64.5
2017-09-01T03:45:45.022Z,64.12
2017-09-01T03:46:45.004Z,64.4
2017-09-01T03:47:45.310Z,64.31
2017-09-01T03:48:45.297Z,64.69
2017-09-01T03:49:45.284Z,64.5
2017-09-01T03:50:44.946Z,64.97
2017-09-01T03:51:44.928Z,64.87
2017-09-01T03:52:45.238Z,64.78
2017-09-01T03:53:44.900Z,64.78
2017-09-01T03:54:44.882Z,64.87
2017-09-01T03:55:45.188Z,65.07
2017-09-01T03:56:44.857Z,64.78
2017-09-01T03:57:44.836Z,64.5
2017-09-01T03:58:44.825Z,64.5
2017-09-01T03:59:44.805Z,65.26
2017-09-01T04:00:44.790Z,64.78
2017-09-01T04:01:44.772Z,65.07
2017-09-01T04:02:44.758Z,64.97
2017-09-01T04:03:45.064Z,64.87
2017-09-01T04:04:44.727Z,64.69
2017-09-01T04:05:44.712Z,64.5
2017-09-01T04:06:44.699Z,64.31
2017-09-01T04:07:45.006Z,64.4
2017-09-01T04:08:45.190Z,64.12
2017-09-01T04:09:44.974Z,64.5
2017-09-01T04:10:44.956Z,64.59
2017-09-01T04:11:44.944Z,64.02
2017-09-01T04:12:44.603Z,64.4
2017-09-01T04:13:44.590Z,64.02
2017-09-01T04:14:44.902Z,63.54
2017-09-01T04:15:44.875Z,63.64
2017-09-01T04:16:44.543Z,63.45
2017-09-01T04:17:44.533Z,63.35
2017-09-01T04:18:44.835Z,63.35
2017-09-01T04:19:44.496Z,63.26
2017-09-01T04:20:44.801Z,63.45
2017-09-01T04:21:44.468Z,63.35
2017-09-01T04:22:44.452Z,63.17
2017-09-01T04:23:44.435Z,63.07
2017-09-01T04:24:44.741Z,62.88
2017-09-01T04:25:44.728Z,62.49
2017-09-01T04:26:44.710Z,62.59
2017-09-01T04:27:44.372Z,62.12
2017-09-01T04:28:44.358Z,61.64
2017-09-01T04:29:44.662Z,61.45
2017-09-01T04:30:44.645Z,61.16
2017-09-01T04:31:44.315Z,61.16
2017-09-01T04:32:44.308Z,61.25
2017-09-01T04:33:44.286Z,60.3
2017-09-01T04:34:44.589Z,60.69
2017-09-01T04:35:44.574Z,60.3
2017-09-01T04:36:44.236Z,59.95
2017-09-01T04:37:44.222Z,59.95
2017-09-01T04:38:44.528Z,59.95
2017-09-01T04:39:44.191Z,59.67
2017-09-01T04:40:44.178Z,59.76
2017-09-01T04:41:44.159Z,59.48
2017-09-01T04:42:44.144Z,59.57
2017-09-01T04:43:44.130Z,59.09
2017-09-01T04:44:44.115Z,59.28
2017-09-01T04:45:44.098Z,59.48
2017-09-01T04:46:44.401Z,59.09
2017-09-01T04:47:44.070Z,59.19
2017-09-01T04:48:44.052Z,59
2017-09-01T04:49:44.036Z,59.86
2017-09-01T04:50:44.345Z,59.86
2017-09-01T04:51:44.007Z,60.05
2017-09-01T04:52:43.995Z,59.86
2017-09-01T04:53:44.309Z,60.24
2017-09-01T04:54:44.284Z,60.24
2017-09-01T04:55:44.269Z,60.05
2017-09-01T04:56:44.258Z,60.65
2017-09-01T04:57:44.238Z,60.75
2017-09-01T04:58:43.906Z,61
2017-09-01T04:59:43.889Z,60.46
2017-09-01T05:00:44.195Z,61.32
2017-09-01T05:01:43.861Z,61.04
2017-09-01T05:02:44.169Z,60.84
2017-09-01T05:03:43.836Z,61.32
2017-09-01T05:04:44.135Z,61.22
2017-09-01T05:05:44.117Z,61.13
2017-09-01T05:06:44.105Z,61.51
2017-09-01T05:07:43.770Z,61.8
2017-09-01T05:08:43.760Z,61.8
2017-09-01T05:09:44.062Z,61.8
2017-09-01T05:10:43.726Z,61.7
2017-09-01T05:11:43.718Z,61.6
2017-09-01T05:12:43.695Z,62.08
2017-09-01T05:13:44.003Z,61.51
2017-09-01T05:14:43.992Z,61.6
2017-09-01T05:15:44.024Z,61.89
2017-09-01T05:16:43.962Z,61.89
2017-09-01T05:17:43.622Z,62.94
2017-09-01T05:18:43.608Z,62.56
2017-09-01T05:19:43.916Z,62.56
2017-09-01T05:20:43.903Z,62.37
2017-09-01T05:21:43.895Z,62.27
2017-09-01T05:22:43.873Z,62.56
2017-09-01T05:23:43.858Z,62.97
2017-09-01T05:24:43.845Z,63.32
2017-09-01T05:25:43.507Z,63.35
2017-09-01T05:26:43.492Z,64.21
2017-09-01T05:27:43.497Z,64.5
2017-09-01T05:28:43.792Z,64.59
2017-09-01T05:29:43.773Z,65.17
2017-09-01T05:30:43.486Z,65.83
2017-09-01T05:31:43.422Z,65.45
2017-09-01T05:32:43.406Z,65.45
2017-09-01T05:33:43.389Z,64.97
2017-09-01T05:34:43.700Z,65.36
2017-09-01T05:35:43.684Z,65.45
2017-09-01T05:36:43.350Z,65.83
2017-09-01T05:37:43.340Z,66.78
2017-09-01T05:38:43.323Z,67.74
2017-09-01T05:39:43.627Z,67.83
2017-09-01T05:40:43.294Z,67.55
2017-09-01T05:41:43.278Z,67.97
2017-09-01T05:42:43.591Z,68.26
2017-09-01T05:43:43.572Z,68.32
2017-09-01T05:44:43.566Z,69.31
2017-09-01T05:45:43.541Z,69.49
2017-09-01T05:46:43.531Z,69.59
2017-09-01T05:47:43.196Z,70.45
2017-09-01T05:48:43.184Z,70.64
2017-09-01T05:49:43.490Z,71.02
2017-09-01T05:50:43.473Z,71.02
2017-09-01T05:51:43.460Z,71.31
2017-09-01T05:52:43.447Z,71.69
2017-09-01T05:53:43.437Z,71.5
2017-09-01T05:54:43.455Z,71.69
2017-09-01T05:55:43.087Z,73.5
2017-09-01T05:56:43.393Z,73.03
2017-09-01T05:57:43.056Z,75.79
2017-09-01T05:58:43.042Z,75.6
2017-09-01T05:59:43.348Z,75.32
2017-09-01T06:00:43.014Z,75.22
2017-09-01T06:01:43.319Z,75.42
2017-09-01T06:02:43.308Z,75.79
2017-09-01T06:03:42.972Z,75.7
2017-09-01T06:04:43.280Z,76.27
2017-09-01T06:05:42.953Z,76.18
2017-09-01T06:06:42.942Z,75.51
2017-09-01T06:07:42.921Z,75.98
2017-09-01T06:08:43.429Z,76.18
2017-09-01T06:09:42.890Z,76.12
2017-09-01T06:10:42.879Z,76.5
2017-09-01T06:11:43.190Z,77.08
2017-09-01T06:12:42.850Z,78.03
2017-09-01T06:13:43.184Z,78.22
2017-09-01T06:14:42.824Z,78.7
2017-09-01T06:15:42.809Z,79.36
2017-09-01T06:16:42.796Z,78.6
2017-09-01T06:17:43.108Z,78.79
2017-09-01T06:18:43.091Z,78.89
2017-09-01T06:19:42.759Z,78.89
2017-09-01T06:20:43.062Z,79.56
2017-09-01T06:21:43.050Z,79.94
2017-09-01T06:22:42.715Z,79.27
2017-09-01T06:23:43.023Z,79.17
2017-09-01T06:24:42.689Z,78.89
2017-09-01T06:25:43.002Z,78.26
2017-09-01T06:26:42.664Z,78.79
2017-09-01T06:27:42.973Z,80.27
2017-09-01T06:28:42.963Z,80.27
2017-09-01T06:29:42.945Z,80.36
2017-09-01T06:30:42.612Z,80.65
2017-09-01T06:31:42.922Z,81.13
2017-09-01T06:32:42.920Z,81.22
2017-09-01T06:33:42.572Z,81.79
2017-09-01T06:34:42.568Z,82.56
2017-09-01T06:35:42.871Z,83.04
2017-09-01T06:36:42.533Z,82.84
2017-09-01T06:37:42.521Z,82.46
2017-09-01T06:38:42.507Z,82.37
2017-09-01T06:39:42.497Z,82.28
2017-09-01T06:40:42.803Z,81.89
2017-09-01T06:41:42.789Z,82.08
2017-09-01T06:42:42.458Z,82.18
2017-09-01T06:43:42.764Z,82.08
2017-09-01T06:44:42.756Z,83.33
2017-09-01T06:45:42.419Z,83.7
2017-09-01T06:46:42.746Z,82.84
2017-09-01T06:47:42.714Z,82.94
2017-09-01T06:48:42.702Z,83.04
2017-09-01T06:49:42.688Z,83.61
2017-09-01T06:50:42.351Z,83.9
2017-09-01T06:51:42.662Z,82.84
2017-09-01T06:52:42.653Z,83.99
2017-09-01T06:53:42.638Z,82.37
2017-09-01T06:54:42.624Z,82.28
2017-09-01T06:55:42.291Z,85.81
2017-09-01T06:56:42.277Z,85.85
2017-09-01T06:57:42.269Z,86.9
2017-09-01T06:58:42.251Z,86.71
2017-09-01T06:59:42.241Z,86.52
2017-09-01T07:00:42.583Z,85.28
2017-09-01T07:01:42.235Z,84.32
2017-09-01T07:02:42.205Z,85.38
2017-09-01T07:03:42.192Z,85.66
2017-09-01T07:04:42.499Z,85.47
2017-09-01T07:05:42.167Z,85.18
2017-09-01T07:06:42.155Z,90.3
2017-09-01T07:07:42.464Z,88.95
2017-09-01T07:08:42.129Z,87.52
2017-09-01T07:09:42.447Z,87.81
2017-09-01T07:10:42.105Z,86.28
2017-09-01T07:11:42.414Z,85.71
2017-09-01T07:12:42.406Z,86.94
2017-09-01T07:13:42.070Z,93.84
2017-09-01T07:14:42.377Z,93.26
2017-09-01T07:15:42.047Z,92.49
2017-09-01T07:16:42.032Z,91.39
2017-09-01T07:17:42.019Z,90.53
2017-09-01T07:18:42.008Z,90.53
2017-09-01T07:19:41.995Z,90.72
2017-09-01T07:20:41.986Z,92.44
2017-09-01T07:21:41.974Z,93.02
2017-09-01T07:22:41.958Z,92.63
2017-09-01T07:23:41.949Z,93.4
2017-09-01T07:24:42.256Z,93.5
2017-09-01T07:25:42.246Z,95.22
2017-09-01T07:26:42.233Z,95.22
2017-09-01T07:27:42.222Z,95.12
2017-09-01T07:28:42.217Z,92.3
2017-09-01T07:29:42.197Z,95.22
2017-09-01T07:30:41.866Z,98.43
2017-09-01T07:31:42.179Z,98.43
2017-09-01T07:32:42.168Z,97.56
2017-09-01T07:33:41.829Z,97.47
2017-09-01T07:34:41.821Z,96.22
2017-09-01T07:35:42.157Z,98.05
2017-09-01T07:36:42.117Z,97.09
2017-09-01T07:37:41.788Z,98.47
2017-09-01T07:38:42.100Z,99.05
2017-09-01T07:39:41.762Z,98.28
2017-09-01T07:40:41.753Z,99.72
2017-09-01T07:41:41.739Z,99.99
2017-09-01T07:42:42.088Z,99.99
2017-09-01T07:43:41.717Z,99.99
2017-09-01T07:44:42.035Z,99.99
2017-09-01T07:45:42.019Z,99.99
2017-09-01T07:46:41.683Z,99.99
2017-09-01T07:47:41.994Z,99.99
2017-09-01T07:48:41.983Z,99.99
2017-09-01T07:49:41.649Z,99.99
2017-09-01T07:50:41.651Z,99.99
2017-09-01T07:51:41.949Z,99.99
2017-09-01T07:52:41.618Z,99.99
2017-09-01T07:53:41.927Z,99.99
2017-09-01T07:54:41.596Z,99.99
2017-09-01T07:55:41.911Z,99.99
2017-09-01T07:56:41.897Z,99.99
2017-09-01T07:57:41.565Z,99.99
2017-09-01T07:58:41.553Z,99.99
2017-09-01T07:59:41.543Z,99.99
2017-09-01T08:00:41.882Z,99.99
2017-09-01T08:01:41.521Z,99.99
2017-09-01T08:02:41.512Z,99.99
2017-09-01T08:03:41.500Z,99.99
2017-09-01T08:04:41.492Z,99.99
2017-09-01T08:05:41.482Z,99.99
2017-09-01T08:06:41.471Z,99.99
2017-09-01T08:07:41.778Z,99.99
2017-09-01T08:08:41.863Z,99.99
2017-09-01T08:09:41.760Z,99.99
2017-09-01T08:10:41.752Z,99.99
2017-09-01T08:11:41.740Z,99.99
2017-09-01T08:12:41.726Z,99.99
2017-09-01T08:13:41.719Z,99.99
2017-09-01T08:14:41.705Z,99.99
2017-09-01T08:15:41.381Z,99.99
2017-09-01T08:16:41.366Z,99.99
2017-09-01T08:17:41.676Z,99.99
2017-09-01T08:18:41.672Z,99.99
2017-09-01T08:19:41.333Z,99.99
2017-09-01T08:20:41.647Z,99.99
2017-09-01T08:21:41.633Z,99.99
2017-09-01T08:22:41.307Z,99.99
2017-09-01T08:23:41.625Z,99.99
2017-09-01T08:24:41.608Z,99.99
2017-09-01T08:25:41.609Z,99.99
2017-09-01T08:26:41.267Z,99.99
2017-09-01T08:27:41.257Z,99.99
2017-09-01T08:28:41.571Z,99.99
2017-09-01T08:29:41.241Z,99.99
2017-09-01T08:30:41.554Z,99.99
2017-09-01T08:31:41.544Z,99.99
2017-09-01T08:32:41.536Z,99.99
2017-09-01T08:33:41.525Z,99.99
2017-09-01T08:34:41.516Z,99.99
2017-09-01T08:35:41.633Z,99.99
2017-09-01T08:36:41.499Z,99.99
2017-09-01T08:37:41.166Z,99.99
2017-09-01T08:38:41.480Z,99.99
2017-09-01T08:39:41.465Z,99.99
2017-09-01T08:40:41.144Z,99.99
2017-09-01T08:41:41.131Z,99.99
2017-09-01T08:42:41.128Z,99.99
2017-09-01T08:43:41.434Z,99.99
2017-09-01T08:44:41.423Z,99.99
2017-09-01T08:45:41.416Z,99.99
2017-09-01T08:46:41.404Z,99.99
2017-09-01T08:47:41.072Z,99.99
2017-09-01T08:48:41.067Z,99.99
2017-09-01T08:49:41.374Z,99.99
2017-09-01T08:50:41.367Z,99.99
2017-09-01T08:51:41.362Z,99.99
2017-09-01T08:52:41.346Z,99.99
2017-09-01T08:53:41.018Z,99.99
2017-09-01T08:54:41.334Z,99.99
2017-09-01T08:55:41.322Z,99.99
2017-09-01T08:56:41.310Z,99.99
2017-09-01T08:57:41.301Z,99.99
2017-09-01T08:58:40.970Z,99.99
2017-09-01T08:59:40.962Z,99.99
2017-09-01T09:00:41.271Z,99.99
2017-09-01T09:01:40.943Z,99.99
2017-09-01T09:02:41.258Z,99.99
2017-09-01T09:03:40.928Z,99.99
2017-09-01T09:04:41.265Z,99.99
2017-09-01T09:05:40.907Z,99.99
2017-09-01T09:06:41.220Z,99.99
2017-09-01T09:07:41.247Z,99.99
2017-09-01T09:08:41.208Z,99.99
2017-09-01T09:09:40.870Z,99.99
2017-09-01T09:10:40.859Z,99.99
2017-09-01T09:11:40.852Z,99.99
2017-09-01T09:12:41.204Z,99.99
2017-09-01T09:13:40.835Z,99.99
2017-09-01T09:14:41.154Z,99.99
2017-09-01T09:15:41.141Z,99.99
2017-09-01T09:16:41.141Z,99.99
2017-09-01T09:17:41.131Z,99.99
2017-09-01T09:18:40.790Z,99.99
2017-09-01T09:19:41.113Z,99.99
2017-09-01T09:20:40.782Z,99.99
2017-09-01T09:21:40.772Z,99.99
2017-09-01T09:22:41.080Z,99.99
2017-09-01T09:23:40.766Z,99.99
2017-09-01T09:24:41.085Z,99.99
2017-09-01T09:25:40.792Z,99.99
2017-09-01T09:26:40.725Z,99.99
2017-09-01T09:27:40.720Z,99.99
2017-09-01T09:28:40.707Z,99.99
2017-09-01T09:29:40.705Z,99.99
2017-09-01T09:30:40.690Z,99.99
2017-09-01T09:31:41.036Z,99.99
2017-09-01T09:32:40.679Z,99.99
2017-09-01T09:33:40.679Z,99.99
2017-09-01T09:34:40.661Z,99.99
2017-09-01T09:35:40.669Z,99.99
2017-09-01T09:36:40.965Z,99.99
2017-09-01T09:37:40.962Z,99.99
2017-09-01T09:38:40.950Z,99.99
2017-09-01T09:39:40.962Z,99.99
2017-09-01T09:40:40.938Z,99.99
2017-09-01T09:41:40.604Z,99.99
2017-09-01T09:42:40.597Z,99.99
2017-09-01T09:43:40.982Z,99.99
2017-09-01T09:44:40.909Z,99.99
2017-09-01T09:45:40.896Z,99.99
2017-09-01T09:46:40.566Z,99.99
2017-09-01T09:47:40.561Z,99.99
2017-09-01T09:48:40.877Z,99.99
2017-09-01T09:49:40.544Z,99.99
2017-09-01T09:50:40.861Z,99.99
2017-09-01T09:51:40.534Z,99.99
2017-09-01T09:52:40.844Z,99.99
2017-09-01T09:53:40.839Z,99.99
2017-09-01T09:54:40.832Z,99.99
2017-09-01T09:55:40.497Z,99.99
2017-09-01T09:56:40.493Z,99.99
2017-09-01T09:57:40.815Z,99.99
2017-09-01T09:58:40.849Z,99.99
2017-09-01T09:59:40.793Z,99.99
2017-09-01T10:00:40.785Z,99.99
2017-09-01T10:01:40.777Z,99.99
2017-09-01T10:02:40.448Z,99.99
2017-09-01T10:03:40.790Z,99.99
2017-09-01T10:04:40.756Z,99.99
2017-09-01T10:05:40.754Z,99.99
2017-09-01T10:06:40.745Z,99.99
2017-09-01T10:07:40.412Z,99.99
2017-09-01T10:08:40.727Z,99.99
2017-09-01T10:09:40.400Z,99.99
2017-09-01T10:10:40.716Z,99.99
2017-09-01T10:11:40.705Z,99.99
2017-09-01T10:12:40.376Z,99.99
2017-09-01T10:13:40.366Z,99.99
2017-09-01T10:14:40.361Z,99.99
2017-09-01T10:15:40.696Z,99.99
2017-09-01T10:16:40.667Z,99.99
2017-09-01T10:17:40.337Z,99.99
2017-09-01T10:18:40.330Z,99.99
2017-09-01T10:19:40.325Z,99.99
2017-09-01T10:20:40.317Z,99.99
2017-09-01T10:21:40.634Z,99.99
2017-09-01T10:22:40.625Z,99.99
2017-09-01T10:23:40.668Z,99.99
2017-09-01T10:24:40.290Z,99.99
2017-09-01T10:25:40.282Z,99.99
2017-09-01T10:26:40.273Z,99.99
2017-09-01T10:27:40.591Z,99.99
2017-09-01T10:28:40.581Z,99.99
2017-09-01T10:29:40.249Z,99.99
2017-09-01T10:30:40.248Z,99.99
2017-09-01T10:31:40.240Z,99.99
2017-09-01T10:32:40.549Z,99.99
2017-09-01T10:33:40.223Z,99.99
2017-09-01T10:34:40.536Z,99.99
2017-09-01T10:35:40.527Z,99.99
2017-09-01T10:36:40.201Z,99.99
2017-09-01T10:37:40.516Z,99.99
2017-09-01T10:38:40.186Z,99.99
2017-09-01T10:39:40.503Z,99.99
2017-09-01T10:40:40.493Z,99.99
2017-09-01T10:41:40.485Z,99.99
2017-09-01T10:42:40.480Z,99.99
2017-09-01T10:43:40.169Z,99.99
2017-09-01T10:44:40.465Z,99.99
2017-09-01T10:45:40.468Z,99.99
2017-09-01T10:46:40.132Z,99.99
2017-09-01T10:47:40.126Z,99.99
2017-09-01T10:48:40.445Z,99.99
2017-09-01T10:49:40.120Z,99.99
2017-09-01T10:50:40.108Z,99.99
2017-09-01T10:51:40.105Z,99.99
2017-09-01T10:52:40.416Z,99.99
2017-09-01T10:53:40.091Z,99.99
2017-09-01T10:54:40.086Z,99.99
2017-09-01T10:55:40.398Z,99.99
2017-09-01T10:56:40.075Z,99.99
2017-09-01T10:57:40.388Z,99.99
2017-09-01T10:58:40.067Z,99.99
2017-09-01T10:59:40.380Z,99.99
2017-09-01T11:00:40.377Z,99.99
2017-09-01T11:01:40.043Z,99.99
2017-09-01T11:02:40.041Z,99.99
2017-09-01T11:03:40.063Z,99.99
2017-09-01T11:04:40.052Z,99.99
2017-09-01T11:05:40.372Z,99.99
2017-09-01T11:06:40.349Z,99.99
2017-09-01T11:07:40.341Z,99.99
2017-09-01T11:08:40.328Z,99.99
2017-09-01T11:09:40.002Z,99.99
2017-09-01T11:10:39.997Z,99.99
2017-09-01T11:11:40.002Z,99.99
2017-09-01T11:12:40.304Z,99.99
2017-09-01T11:13:40.299Z,99.99
2017-09-01T11:14:39.972Z,99.99
2017-09-01T11:15:39.963Z,99.99
2017-09-01T11:16:40.309Z,99.99
2017-09-01T11:17:40.271Z,99.99
2017-09-01T11:18:40.263Z,99.99
2017-09-01T11:19:40.260Z,99.99
2017-09-01T11:20:39.945Z,99.99
2017-09-01T11:21:40.243Z,99.99
2017-09-01T11:22:40.242Z,99.99
2017-09-01T11:23:39.909Z,99.99
2017-09-01T11:24:39.900Z,99.99
2017-09-01T11:25:40.215Z,99.99
2017-09-01T11:26:40.212Z,99.99
2017-09-01T11:27:40.202Z,99.99
2017-09-01T11:28:40.197Z,99.99
2017-09-01T11:29:40.192Z,99.99
2017-09-01T11:30:40.182Z,99.99
2017-09-01T11:31:40.184Z,99.99
2017-09-01T11:32:39.849Z,99.99
2017-09-01T11:33:40.161Z,99.99
2017-09-01T11:34:39.836Z,99.99
2017-09-01T11:35:40.144Z,99.99
2017-09-01T11:36:39.818Z,99.99
2017-09-01T11:37:40.144Z,99.99
2017-09-01T11:38:40.173Z,99.99
2017-09-01T11:39:40.112Z,99.99
2017-09-01T11:40:40.110Z,99.99
2017-09-01T11:41:39.778Z,99.99
2017-09-01T11:42:39.770Z,99.99
2017-09-01T11:43:40.116Z,99.99
2017-09-01T11:44:40.077Z,99.99
2017-09-01T11:45:40.074Z,99.99
2017-09-01T11:46:40.066Z,99.99
2017-09-01T11:47:40.049Z,99.99
2017-09-01T11:48:39.724Z,99.99
2017-09-01T11:49:39.831Z,99.99
2017-09-01T11:50:40.035Z,99.99
2017-09-01T11:51:40.078Z,99.99
2017-09-01T11:52:40.014Z,99.99
2017-09-01T11:53:40.020Z,99.99
2017-09-01T11:54:39.674Z,99.99
2017-09-01T11:55:39.678Z,99.99
2017-09-01T11:56:39.983Z,99.99
2017-09-01T11:57:39.665Z,99.99
2017-09-01T11:58:39.654Z,99.99
2017-09-01T11:59:39.956Z,99.99
2017-09-01T12:00:39.627Z,99.99
2017-09-01T12:01:39.620Z,99.99
2017-09-01T12:02:39.926Z,99.99
2017-09-01T12:03:39.600Z,99.99
2017-09-01T12:04:39.915Z,99.99
2017-09-01T12:05:39.582Z,99.99
2017-09-01T12:06:39.573Z,99.99
2017-09-01T12:07:39.569Z,99.99
2017-09-01T12:08:39.556Z,99.99
2017-09-01T12:09:39.749Z,99.99
2017-09-01T12:10:39.538Z,99.99
2017-09-01T12:11:39.854Z,99.99
2017-09-01T12:12:39.520Z,99.99
2017-09-01T12:13:39.835Z,99.99
2017-09-01T12:14:39.825Z,99.99
2017-09-01T12:15:39.817Z,99.99
2017-09-01T12:16:39.492Z,99.99
2017-09-01T12:17:39.799Z,99.99
2017-09-01T12:18:39.797Z,99.99
2017-09-01T12:19:39.461Z,99.99
2017-09-01T12:20:39.774Z,99.99
2017-09-01T12:21:39.766Z,99.99
2017-09-01T12:22:39.753Z,99.99
2017-09-01T12:23:39.422Z,99.99
2017-09-01T12:24:39.414Z,99.99
2017-09-01T12:25:39.405Z,99.99
2017-09-01T12:26:39.396Z,99.99
2017-09-01T12:27:39.710Z,99.99
2017-09-01T12:28:39.378Z,99.99
2017-09-01T12:29:39.690Z,99.99
2017-09-01T12:30:39.362Z,99.99
2017-09-01T12:31:39.356Z,99.99
2017-09-01T12:32:39.669Z,99.99
2017-09-01T12:33:39.330Z,99.99
2017-09-01T12:34:39.745Z,99.99
2017-09-01T12:35:39.313Z,99.99
2017-09-01T12:36:39.304Z,98.77
2017-09-01T12:37:39.293Z,98.96
2017-09-01T12:38:39.605Z,99.25
2017-09-01T12:39:39.273Z,97.52
2017-09-01T12:40:39.635Z,98.29
2017-09-01T12:41:39.578Z,97.91
2017-09-01T12:42:39.565Z,98.58
2017-09-01T12:43:39.578Z,97.91
2017-09-01T12:44:39.548Z,98.48
2017-09-01T12:45:39.537Z,96.66
2017-09-01T12:46:39.209Z,99.34
2017-09-01T12:47:39.519Z,96.75
2017-09-01T12:48:39.189Z,96.22
2017-09-01T12:49:39.500Z,95.65
2017-09-01T12:50:39.490Z,93.82
2017-09-01T12:51:39.160Z,91.33
2017-09-01T12:52:39.478Z,90.18
2017-09-01T12:53:39.459Z,88.41
2017-09-01T12:54:39.446Z,89.18